Detall de PIREP

Printer-friendly versionPDF version

[2013/01/24 08:21:00]
Flight IATA:CT0001
Pilot Number:041
Company ICAO:CAT
Aircraft Type:A320/E
PAX:98
Departing Airport: LEDA
Destination Airport: LEVC
Alternate Airport:LEBL
Online: VATSIM
Route:DCT OSVAK H110 SEROX A34 SAURA DCT
Flight Level:F170
No Slew and time accel
No pause
Crash detect
Detect pilot in Cockpit between each 30 and 45 minutes
08:21 Zero fuel Weight: 134051 Lbs, Fuel Weight: 8600 Lbs
08:21 VATSIM:No METAR available for LEDA.
08:21 VATSIM:LEVC 240800Z 27020G30KT 9999 -RA FEW020 FEW022TCU BKN025 14/07 Q1005 NOSIG
08:22 VOICE CATALONIAN
08:28 Parking Brakes off
08:32 Take-off
08:32 Take off Weight: 141835 Lbs
08:32 Wind: 067º @ 003 Knots Heading: 131º
08:32 POS N41º 43´ 24´´ E000º 32´ 30´´
08:32 Gear Up: 162 Knots
08:32 Flaps:3 at 162 Knots
08:32 Flaps:2 at 174 Knots
08:32 Flaps:1 at 187 Knots
08:32 Flaps:0 at 174 Knots
08:37 TOC
08:37 FuelWeight: 5886 Lb
08:47 Wind:311º@078 Knots Heading: 207º Ground Speed: 396 Knots Altitude 16758 ft
08:47 TOD
08:47 Fuel Weight: 4561 Lb
09:01 Flaps:1 at 209 Knots
09:02 Wind:276º@024 Knots Heading: 288º Ground Speed: 189 Knots Altitude 2565 ft
09:02 Flaps:3 at 199 Knots
09:02 Gear Down: 192 Knots
09:05 TouchDown:Rate -447 ft/min Speed: 149 Knots
09:05 Flaps:0 at 48 Knots
09:05 VATSIM:LEVC 240841Z 30022G36KT 280V340 9000 -RA FEW020 FEW022CB BKN025 11/06 Q1007 BECMG NSW
09:05 Land
09:05 Wind:329º@033 Knots
09:05 Heading: 301º
09:05 Flight Duration: 00:33
09:05 Landing Weight: 137115 Lbs
09:05 POS N39º 29´ 17´´ W000º 28´ 44´´
09:07 Parking brakes on
09:07 Block to Block Duration: 00:39
09:07 Final Fuel: 2868 Lbls
09:07 Spent Fuel: 5731 Lbls
09:07 Flight Length: 160 NM
09:07 TOD Land Length: 74 NM

Exportar CSV

Powered by Drupal - Modified by Danger4k